Time;durP1;ratioP1;P1;durP2;ratioP2;P2;SDS_P1;SDS_P2;PMS_P1;PMS_P2;Temp;Humidity;BMP_temperature;BMP_pressure;BME280_temperature;BME280_humidity;BME280_pressure;Samples;Min_cycle;Max_cycle;Signal;HPM_P1;HPM_P2
2022/04/27 00:00:30;;;;;;;32.57;17.23;;;;;;;;;;4977582;28;20935;-81
2022/04/27 00:02:57;;;;;;;19.47;12.57;;;5.50;99.90;;;;;;4966303;28;20220;-81
2022/04/27 00:05:23;;;;;;;13.30;9.23;;;;;;;;;;4959849;28;20201;-81
2022/04/27 00:07:49;;;;;;;12.03;10.10;;;;;;;;;;4959642;29;20460;-81
2022/04/27 00:10:15;;;;;;;9.13;7.73;;;5.50;99.90;;;;;;4960807;28;20873;-81
2022/04/27 00:12:41;;;;;;;8.27;6.37;;;5.70;99.90;;;;;;4961032;29;20437;-81
2022/04/27 00:15:08;;;;;;;7.40;6.13;;;5.70;99.90;;;;;;4959913;29;20598;-81
2022/04/27 00:17:34;;;;;;;6.63;5.80;;;5.70;99.90;;;;;;4959783;29;20428;-81
2022/04/27 00:20:00;;;;;;;7.10;5.87;;;5.70;99.90;;;;;;4960905;28;20196;-80
2022/04/27 00:22:26;;;;;;;5.83;5.23;;;5.80;99.90;;;;;;4960657;28;20432;-81
2022/04/27 00:24:52;;;;;;;9.43;5.80;;;;;;;;;;4960849;28;20263;-81
2022/04/27 00:27:18;;;;;;;5.97;5.40;;;5.80;99.90;;;;;;4960450;28;20227;-81
2022/04/27 00:29:44;;;;;;;5.80;4.90;;;;;;;;;;4959560;29;20180;-81
2022/04/27 00:32:09;;;;;;;5.70;5.00;;;6.00;99.90;;;;;;4961040;29;20200;-81
2022/04/27 00:34:35;;;;;;;7.83;5.37;;;6.00;99.90;;;;;;4960741;28;20185;-81
2022/04/27 00:37:01;;;;;;;7.57;5.17;;;;;;;;;;4960632;28;20180;-81
2022/04/27 00:39:27;;;;;;;6.63;5.40;;;6.00;99.90;;;;;;4960223;28;20647;-81
2022/04/27 00:42:02;;;;;;;9.30;5.50;;;;;;;;;;4959081;28;20499;-81
2022/04/27 00:44:32;;;;;;;7.80;5.80;;;5.90;99.90;;;;;;4959918;29;20195;-81
2022/04/27 00:46:59;;;;;;;8.53;6.03;;;5.90;99.90;;;;;;4960419;28;20468;-81
2022/04/27 00:49:28;;;;;;;7.03;5.90;;;5.90;99.90;;;;;;4959092;29;20212;-81
2022/04/27 00:51:55;;;;;;;6.80;5.57;;;5.90;99.90;;;;;;4960533;28;20244;-81
2022/04/27 00:54:22;;;;;;;6.00;5.13;;;5.90;99.90;;;;;;4959786;28;20180;-81
2022/04/27 00:56:51;;;;;;;6.50;5.60;;;5.90;99.90;;;;;;4959327;28;20417;-81
2022/04/27 00:59:18;;;;;;;5.93;5.30;;;;;;;;;;4960050;28;20428;-80
2022/04/27 01:01:44;;;;;;;8.43;5.57;;;;;;;;;;4958618;29;20468;-81
2022/04/27 01:04:10;;;;;;;9.20;5.37;;;5.90;99.90;;;;;;4960273;28;20412;-81
2022/04/27 01:06:37;;;;;;;7.23;5.57;;;5.90;99.90;;;;;;4960128;28;20184;-81
2022/04/27 01:09:03;;;;;;;8.53;6.83;;;5.90;99.90;;;;;;4959229;29;20219;-81
2022/04/27 01:11:32;;;;;;;7.53;5.87;;;6.00;99.90;;;;;;4960049;28;20197;-81
2022/04/27 01:13:57;;;;;;;7.63;5.37;;;5.90;99.90;;;;;;4974859;29;20417;-80
2022/04/27 01:16:23;;;;;;;6.93;5.90;;;;;;;;;;4976713;29;20428;-80
2022/04/27 01:18:52;;;;;;;6.33;5.50;;;;;;;;;;4976809;29;20185;-80
2022/04/27 01:21:18;;;;;;;8.13;5.83;;;5.90;99.90;;;;;;4958104;28;20449;-81
2022/04/27 01:23:44;;;;;;;8.57;6.03;;;5.90;99.90;;;;;;4958350;29;20427;-81
2022/04/27 01:26:10;;;;;;;5.83;5.20;;;;;;;;;;4959687;28;20185;-80
2022/04/27 01:28:38;;;;;;;6.37;5.70;;;5.90;99.90;;;;;;4959264;28;20205;-81
2022/04/27 01:31:11;;;;;;;7.13;5.83;;;6.00;99.90;;;;;;4957553;28;20440;-81
2022/04/27 01:33:38;;;;;;;6.50;5.60;;;;;;;;;;4958082;29;20853;-81
2022/04/27 01:36:06;;;;;;;7.33;5.37;;;6.00;99.90;;;;;;4959148;28;20883;-81
2022/04/27 01:38:36;;;;;;;7.77;5.90;;;5.90;99.90;;;;;;4959062;28;20512;-81
2022/04/27 01:41:02;;;;;;;6.67;5.43;;;6.00;99.90;;;;;;4959206;28;20527;-81
2022/04/27 01:43:29;;;;;;;7.10;6.10;;;6.00;99.90;;;;;;4958154;28;20432;-81
2022/04/27 01:45:55;;;;;;;8.90;6.40;;;6.00;99.90;;;;;;4973935;28;20803;-80
2022/04/27 01:48:21;;;;;;;7.70;5.77;;;;;;;;;;4958967;28;20460;-81
2022/04/27 01:50:47;;;;;;;7.70;6.50;;;;;;;;;;4957741;29;20197;-81
2022/04/27 01:55:57;;;;;;;7.03;5.30;;;6.00;99.90;;;;;;4959611;29;20893;-81
2022/04/27 01:58:24;;;;;;;7.40;5.53;;;6.00;99.90;;;;;;4957533;29;20420;-80
2022/04/27 02:00:50;;;;;;;7.77;6.10;;;5.90;99.90;;;;;;4957040;29;20215;-80
2022/04/27 02:03:18;;;;;;;10.07;7.17;;;5.90;99.90;;;;;;4957113;29;20416;-80
2022/04/27 02:05:44;;;;;;;8.57;6.53;;;;;;;;;;4957577;28;20183;-81
2022/04/27 02:08:10;;;;;;;8.67;6.10;;;;;;;;;;4957166;28;20651;-81
2022/04/27 02:10:35;;;;;;;7.13;6.37;;;6.00;99.90;;;;;;4956350;29;20413;-81
2022/04/27 02:13:06;;;;;;;7.33;6.50;;;6.00;99.90;;;;;;4957979;29;20235;-81
2022/04/27 02:15:32;;;;;;;7.67;6.10;;;6.00;99.90;;;;;;4957611;28;20185;-81
2022/04/27 02:17:59;;;;;;;8.20;6.90;;;;;;;;;;4956380;28;20585;-81
2022/04/27 02:20:25;;;;;;;8.47;6.67;;;;;;;;;;4955981;28;20913;-80
2022/04/27 02:22:51;;;;;;;11.00;7.80;;;6.10;99.90;;;;;;4955963;28;20800;-80
2022/04/27 02:25:18;;;;;;;8.27;6.90;;;6.00;99.90;;;;;;4956186;28;20452;-80
2022/04/27 02:27:44;;;;;;;9.37;7.30;;;6.00;99.90;;;;;;4955726;29;20210;-81
2022/04/27 02:30:10;;;;;;;7.73;6.53;;;6.10;99.90;;;;;;4955323;28;20178;-81
2022/04/27 02:32:37;;;;;;;9.30;7.10;;;6.10;99.90;;;;;;4954821;28;20253;-81
2022/04/27 02:35:04;;;;;;;9.90;7.47;;;6.10;99.90;;;;;;4956192;28;20706;-81
2022/04/27 02:37:32;;;;;;;8.80;6.77;;;6.10;99.90;;;;;;4956210;28;20189;-81
2022/04/27 02:40:00;;;;;;;9.37;6.80;;;6.10;99.90;;;;;;4958664;28;20181;-81
2022/04/27 02:42:27;;;;;;;7.73;6.50;;;;;;;;;;4958755;28;20727;-81
2022/04/27 02:44:53;;;;;;;7.83;7.00;;;6.10;99.90;;;;;;4957418;29;20830;-82
2022/04/27 02:47:19;;;;;;;9.80;7.67;;;6.10;99.90;;;;;;4957453;29;20280;-81
2022/04/27 02:52:29;;;;;;;10.40;6.57;;;6.10;99.90;;;;;;4961796;29;20199;-80
2022/04/27 02:54:55;;;;;;;9.87;6.97;;;;;;;;;;4974367;28;20784;-80
2022/04/27 02:57:22;;;;;;;8.37;6.10;;;;;;;;;;4959534;28;20898;-81
2022/04/27 02:59:48;;;;;;;8.30;6.77;;;;;;;;;;4957853;28;20404;-81
2022/04/27 03:02:14;;;;;;;8.57;7.17;;;6.00;99.90;;;;;;4958207;28;20499;-81
2022/04/27 03:04:40;;;;;;;10.53;7.57;;;6.00;99.90;;;;;;4957307;29;20471;-81
2022/04/27 03:07:06;;;;;;;9.90;7.50;;;6.00;99.90;;;;;;4957203;29;20192;-81
2022/04/27 03:09:33;;;;;;;8.03;6.70;;;;;;;;;;4958251;28;20497;-81
2022/04/27 03:11:59;;;;;;;12.60;7.00;;;6.00;99.90;;;;;;4959048;28;20435;-81
2022/04/27 03:14:25;;;;;;;8.20;6.73;;;6.00;99.90;;;;;;4957111;29;20268;-81
2022/04/27 03:16:52;;;;;;;8.90;7.00;;;6.00;99.90;;;;;;4959184;28;20209;-81
2022/04/27 03:19:19;;;;;;;10.10;6.60;;;;;;;;;;4961037;28;20578;-81
2022/04/27 03:21:45;;;;;;;8.40;7.50;;;6.00;99.90;;;;;;4962202;28;20432;-81
2022/04/27 03:24:10;;;;;;;8.37;6.50;;;5.90;99.90;;;;;;4961534;28;20235;-80
2022/04/27 03:26:36;;;;;;;9.60;6.70;;;;;;;;;;4961685;28;20189;-81
2022/04/27 03:29:03;;;;;;;8.70;6.67;;;5.90;99.90;;;;;;4961954;28;20237;-81
2022/04/27 03:31:29;;;;;;;8.97;6.93;;;5.90;99.90;;;;;;4961376;28;20428;-81
2022/04/27 03:33:55;;;;;;;9.70;7.10;;;5.90;99.90;;;;;;4960510;29;20424;-81
2022/04/27 03:36:21;;;;;;;7.83;6.93;;;;;;;;;;4960262;28;20666;-81
2022/04/27 03:38:50;;;;;;;7.80;6.30;;;6.00;99.90;;;;;;4960579;28;20185;-81
2022/04/27 03:41:20;;;;;;;7.83;6.20;;;;;;;;;;4961492;28;20205;-80
2022/04/27 03:43:50;;;;;;;7.80;6.97;;;6.00;99.90;;;;;;4960811;29;20420;-81
2022/04/27 03:46:16;;;;;;;8.33;7.33;;;5.90;99.90;;;;;;4960385;29;20197;-81
2022/04/27 03:48:42;;;;;;;10.43;7.23;;;;;;;;;;4960015;28;20233;-81
2022/04/27 03:51:08;;;;;;;10.67;6.97;;;5.80;99.90;;;;;;4959993;28;20683;-81
2022/04/27 03:53:34;;;;;;;8.20;6.87;;;5.80;99.90;;;;;;4960018;29;20181;-81
2022/04/27 03:56:00;;;;;;;10.60;7.07;;;5.80;99.90;;;;;;4959606;28;20671;-81
2022/04/27 03:58:25;;;;;;;8.17;6.03;;;5.80;99.90;;;;;;4959639;29;20189;-81
2022/04/27 04:00:51;;;;;;;8.13;6.53;;;5.80;99.90;;;;;;4960063;29;20208;-81
2022/04/27 04:03:17;;;;;;;7.90;6.77;;;5.80;99.90;;;;;;4960140;28;20185;-81
2022/04/27 04:05:42;;;;;;;8.03;6.40;;;5.80;99.90;;;;;;4960247;28;20185;-81
2022/04/27 04:08:08;;;;;;;9.37;7.33;;;;;;;;;;4961287;28;20335;-81
2022/04/27 04:10:34;;;;;;;8.60;7.00;;;5.70;99.90;;;;;;4960989;28;20184;-81
2022/04/27 04:13:01;;;;;;;8.17;6.53;;;5.70;99.90;;;;;;4959877;28;20429;-81
2022/04/27 04:15:27;;;;;;;7.83;6.53;;;;;;;;;;4960394;29;20992;-81
2022/04/27 04:17:54;;;;;;;7.87;6.23;;;;;;;;;;4960824;29;20420;-81
2022/04/27 04:20:20;;;;;;;8.87;6.47;;;;;;;;;;4961202;29;20440;-81
2022/04/27 04:22:47;;;;;;;7.60;6.67;;;5.60;99.90;;;;;;4961515;29;20444;-81
2022/04/27 04:30:53;;;;;;;6.77;5.80;;;5.60;99.90;;;;;;4975234;29;20427;-80
2022/04/27 04:33:18;;;;;;;7.73;6.57;;;5.60;99.90;;;;;;4975610;28;20416;-80
2022/04/27 04:35:44;;;;;;;7.20;6.43;;;5.70;99.90;;;;;;4974001;29;20180;-81
2022/04/27 04:38:10;;;;;;;9.53;6.93;;;5.70;99.90;;;;;;4961044;28;20184;-81
2022/04/27 04:40:36;;;;;;;7.53;6.33;;;5.80;99.90;;;;;;4960450;28;20188;-81
2022/04/27 04:43:02;;;;;;;7.10;6.00;;;;;;;;;;4960819;28;20181;-80
2022/04/27 04:45:28;;;;;;;7.40;6.20;;;;;;;;;;4959437;29;20197;-81
2022/04/27 04:47:54;;;;;;;8.37;6.80;;;;;;;;;;4959581;28;20474;-80
2022/04/27 04:50:20;;;;;;;10.30;6.03;;;;;;;;;;4960359;28;20409;-82
2022/04/27 04:52:46;;;;;;;8.00;7.17;;;5.90;99.90;;;;;;4959417;29;20445;-81
2022/04/27 04:55:12;;;;;;;9.17;6.77;;;;;;;;;;4961074;28;20408;-80
2022/04/27 04:57:38;;;;;;;9.40;7.27;;;;;;;;;;4960064;29;20220;-81
2022/04/27 05:00:05;;;;;;;10.60;7.63;;;6.00;99.90;;;;;;4959674;28;20424;-81
2022/04/27 05:02:31;;;;;;;26.57;18.87;;;6.10;99.90;;;;;;4959929;28;20507;-80
2022/04/27 05:05:02;;;;;;;9.60;7.73;;;6.10;99.90;;;;;;4961542;28;20185;-80
2022/04/27 05:07:29;;;;;;;10.93;8.40;;;;;;;;;;4959441;29;20169;-80
2022/04/27 05:09:56;;;;;;;20.00;15.73;;;;;;;;;;4960422;29;20439;-80
2022/04/27 05:12:23;;;;;;;20.30;14.27;;;;;;;;;;4958575;28;21021;-81
2022/04/27 05:14:49;;;;;;;14.00;11.23;;;6.20;99.90;;;;;;4960154;28;20420;-81
2022/04/27 05:17:15;;;;;;;13.13;9.37;;;;;;;;;;4960535;28;20181;-81
2022/04/27 05:19:40;;;;;;;13.10;9.40;;;6.20;99.90;;;;;;4961272;28;20255;-80
2022/04/27 05:22:06;;;;;;;12.87;9.83;;;;;;;;;;4964625;28;20303;-81
2022/04/27 05:24:32;;;;;;;12.73;10.97;;;;;;;;;;4958058;29;20185;-81
2022/04/27 05:26:58;;;;;;;9.73;7.57;;;;;;;;;;4958253;28;20464;-81
2022/04/27 05:32:10;;;;;;;8.73;7.07;;;6.30;99.90;;;;;;4959251;29;20562;-81
2022/04/27 05:34:36;;;;;;;17.07;12.80;;;6.30;99.90;;;;;;4957192;28;20185;-82
2022/04/27 05:37:03;;;;;;;13.80;11.30;;;6.30;99.90;;;;;;4958691;28;20427;-83
2022/04/27 05:39:29;;;;;;;13.97;9.87;;;6.20;99.90;;;;;;4957714;28;20532;-82
2022/04/27 05:41:55;;;;;;;11.00;8.67;;;6.20;99.90;;;;;;4956458;29;20480;-83
2022/04/27 05:44:22;;;;;;;9.77;7.87;;;6.20;99.90;;;;;;4957750;29;20224;-81
2022/04/27 05:46:49;;;;;;;8.33;6.80;;;6.20;99.90;;;;;;4958461;29;20550;-83
2022/04/27 05:49:15;;;;;;;8.03;6.07;;;;;;;;;;4959979;28;20468;-83
2022/04/27 05:51:41;;;;;;;8.23;6.20;;;;;;;;;;4959717;28;20504;-82
2022/04/27 05:54:07;;;;;;;7.33;6.03;;;6.40;99.90;;;;;;4960507;28;20436;-82
2022/04/27 05:56:33;;;;;;;8.07;6.60;;;;;;;;;;4958455;29;20191;-82
2022/04/27 05:59:00;;;;;;;9.40;7.10;;;6.30;99.90;;;;;;4958659;28;20181;-82
2022/04/27 06:01:25;;;;;;;10.37;6.67;;;6.30;99.90;;;;;;4958461;28;20799;-82
2022/04/27 06:03:53;;;;;;;7.07;6.30;;;;;;;;;;4960129;28;20188;-82
2022/04/27 06:06:20;;;;;;;9.30;5.90;;;;;;;;;;4957887;29;20189;-82
2022/04/27 06:08:45;;;;;;;7.03;5.83;;;6.40;99.90;;;;;;4959851;29;20460;-82
2022/04/27 06:11:11;;;;;;;10.87;6.20;;;6.50;99.90;;;;;;4958822;28;20208;-82
2022/04/27 06:13:37;;;;;;;8.97;5.67;;;6.50;99.90;;;;;;4974311;28;20523;-82
2022/04/27 06:16:03;;;;;;;7.97;6.03;;;;;;;;;;4958811;28;20180;-82
2022/04/27 06:18:28;;;;;;;7.73;5.30;;;6.70;99.90;;;;;;4958396;28;20557;-82
2022/04/27 06:20:55;;;;;;;7.87;5.87;;;6.80;99.90;;;;;;4961302;28;20260;-81
2022/04/27 06:23:21;;;;;;;6.77;5.33;;;6.90;99.90;;;;;;4959379;29;20223;-82
2022/04/27 06:25:49;;;;;;;7.57;5.97;;;6.90;99.90;;;;;;4958506;29;20257;-82
2022/04/27 06:28:18;;;;;;;8.33;6.60;;;7.00;99.90;;;;;;4958770;28;20291;-82
2022/04/27 06:30:44;;;;;;;8.20;6.70;;;7.20;99.90;;;;;;4961334;28;20184;-82
2022/04/27 06:33:10;;;;;;;7.67;6.17;;;7.20;99.90;;;;;;4966065;28;20749;-82
2022/04/27 06:35:37;;;;;;;8.13;6.33;;;7.20;99.90;;;;;;4967778;28;20204;-82
2022/04/27 06:38:03;;;;;;;7.67;6.43;;;7.30;99.90;;;;;;4961972;28;20192;-82
2022/04/27 06:40:29;;;;;;;8.57;6.83;;;7.30;99.90;;;;;;4957455;29;20180;-82
2022/04/27 06:42:56;;;;;;;8.27;6.90;;;7.30;99.90;;;;;;4958919;28;20187;-82
2022/04/27 06:45:27;;;;;;;9.27;6.93;;;7.40;99.90;;;;;;4957627;29;20185;-82
2022/04/27 06:47:56;;;;;;;9.50;7.63;;;7.50;99.90;;;;;;4957691;29;20201;-82
2022/04/27 06:50:21;;;;;;;10.23;7.40;;;7.50;99.90;;;;;;4957708;29;20184;-82
2022/04/27 06:52:47;;;;;;;9.40;7.73;;;7.60;99.90;;;;;;4958531;28;20213;-81
2022/04/27 06:55:14;;;;;;;8.67;7.77;;;7.70;99.90;;;;;;4959327;28;20639;-82
2022/04/27 06:57:40;;;;;;;8.63;7.23;;;7.70;99.90;;;;;;4958210;29;20666;-82
2022/04/27 07:00:08;;;;;;;8.57;7.20;;;7.70;99.90;;;;;;4957708;28;20180;-82
2022/04/27 07:02:35;;;;;;;9.43;7.13;;;7.90;99.90;;;;;;4957458;28;20255;-82
2022/04/27 07:05:02;;;;;;;8.07;6.97;;;8.00;99.90;;;;;;4957369;29;20180;-82
2022/04/27 07:07:28;;;;;;;8.70;7.33;;;8.20;99.90;;;;;;4957862;28;20187;-82
2022/04/27 07:09:56;;;;;;;10.23;6.90;;;8.30;99.90;;;;;;4959128;28;20636;-82
2022/04/27 07:12:22;;;;;;;9.50;7.13;;;8.30;99.90;;;;;;4957435;28;20594;-82
2022/04/27 07:14:48;;;;;;;10.60;6.80;;;8.40;99.90;;;;;;4958938;28;20178;-83
2022/04/27 07:17:15;;;;;;;8.63;5.93;;;8.40;99.90;;;;;;4958962;29;20173;-83
2022/04/27 07:19:40;;;;;;;8.40;6.30;;;8.40;99.90;;;;;;4958482;28;20185;-82
2022/04/27 07:22:06;;;;;;;8.97;6.77;;;8.40;99.90;;;;;;4959496;28;20228;-82
2022/04/27 07:24:36;;;;;;;10.23;5.83;;;8.50;99.90;;;;;;4958156;28;20187;-82
2022/04/27 07:27:01;;;;;;;9.07;6.77;;;8.80;99.90;;;;;;4958961;28;20185;-82
2022/04/27 07:29:27;;;;;;;7.67;6.43;;;9.10;99.90;;;;;;4959301;29;20211;-83
2022/04/27 07:31:53;;;;;;;8.13;5.97;;;9.40;99.90;;;;;;4957381;28;20248;-83
2022/04/27 07:34:18;;;;;;;7.07;5.70;;;9.60;99.90;;;;;;4958129;28;20534;-83
2022/04/27 07:36:44;;;;;;;7.17;4.83;;;9.60;99.90;;;;;;4956785;28;20233;-82
2022/04/27 07:39:10;;;;;;;6.00;5.40;;;9.40;99.90;;;;;;4957202;28;20181;-83
2022/04/27 07:41:36;;;;;;;8.10;6.10;;;9.40;99.90;;;;;;4957298;29;20207;-82
2022/04/27 07:44:02;;;;;;;7.23;6.13;;;9.60;99.90;;;;;;4957177;28;20177;-82
2022/04/27 07:46:28;;;;;;;7.07;5.83;;;10.20;99.90;;;;;;4958116;28;20181;-83
2022/04/27 07:48:55;;;;;;;7.77;6.57;;;10.80;99.90;;;;;;4958428;28;20259;-83
2022/04/27 07:51:21;;;;;;;7.17;6.10;;;11.70;99.90;;;;;;4958808;28;20204;-83
2022/04/27 07:53:47;;;;;;;7.27;5.40;;;12.60;99.90;;;;;;4957078;29;20211;-83
2022/04/27 07:56:13;;;;;;;6.83;5.43;;;13.10;99.90;;;;;;4957336;29;20186;-83
2022/04/27 07:58:42;;;;;;;7.97;5.83;;;13.70;99.90;;;;;;4956994;29;20224;-83
2022/04/27 08:01:08;;;;;;;8.00;6.03;;;14.10;99.90;;;;;;4956889;28;20213;-83
2022/04/27 08:03:34;;;;;;;8.73;5.93;;;14.00;99.90;;;;;;4959156;28;20236;-83
2022/04/27 08:06:03;;;;;;;7.50;5.93;;;14.60;99.90;;;;;;4961285;28;20188;-82
2022/04/27 08:08:29;;;;;;;7.80;6.43;;;14.80;99.90;;;;;;4959818;28;20231;-83
2022/04/27 08:10:55;;;;;;;7.17;6.40;;;15.70;99.90;;;;;;4960782;28;20219;-83
2022/04/27 08:13:21;;;;;;;7.87;6.00;;;16.50;99.90;;;;;;4961572;28;20177;-83
2022/04/27 08:15:46;;;;;;;7.97;6.40;;;17.30;99.90;;;;;;4959561;29;20522;-83
2022/04/27 08:18:12;;;;;;;9.30;6.13;;;16.60;99.90;;;;;;4960825;28;20180;-83
2022/04/27 08:23:28;;;;;;;7.80;6.17;;;15.20;99.90;;;;;;4962091;29;20188;-85
2022/04/27 08:25:56;;;;;;;6.47;5.87;;;12.70;99.90;;;;;;4960236;29;20177;-83
2022/04/27 08:28:22;;;;;;;7.77;6.50;;;11.90;99.90;;;;;;4960239;29;20197;-83
2022/04/27 08:30:49;;;;;;;9.83;7.47;;;11.50;99.90;;;;;;4959288;29;20288;-83
2022/04/27 08:33:16;;;;;;;8.57;7.33;;;11.10;99.90;;;;;;4960584;28;20165;-84
2022/04/27 08:35:42;;;;;;;8.77;7.20;;;11.00;99.90;;;;;;4961264;28;20177;-84
2022/04/27 08:38:09;;;;;;;7.87;7.00;;;10.90;99.90;;;;;;4961934;28;20718;-83
2022/04/27 08:40:37;;;;;;;7.53;6.70;;;10.90;99.90;;;;;;4960983;28;20192;-83
2022/04/27 08:43:03;;;;;;;8.63;7.27;;;10.80;99.90;;;;;;4962687;28;20177;-83
2022/04/27 08:45:30;;;;;;;7.97;6.40;;;10.60;99.90;;;;;;4958817;28;20677;-84
2022/04/27 08:47:56;;;;;;;8.53;6.87;;;10.50;99.90;;;;;;4957234;29;20208;-84
2022/04/27 08:50:23;;;;;;;8.73;7.03;;;10.60;99.90;;;;;;4959299;29;20558;-83
2022/04/27 08:52:50;;;;;;;9.03;7.07;;;10.80;99.90;;;;;;4960318;29;20293;-83
2022/04/27 08:55:17;;;;;;;9.10;7.10;;;10.90;99.90;;;;;;4959754;28;20209;-83
2022/04/27 08:57:43;;;;;;;8.13;7.23;;;10.90;99.90;;;;;;4959479;28;20223;-83
2022/04/27 09:00:20;;;;;;;8.27;6.50;;;10.90;99.90;;;;;;4959895;29;20643;-83
2022/04/27 09:02:46;;;;;;;6.67;5.90;;;11.10;99.90;;;;;;4959677;29;20582;-83
2022/04/27 09:05:18;;;;;;;8.30;6.53;;;11.30;99.90;;;;;;4960076;28;20188;-83
2022/04/27 09:07:50;;;;;;;8.67;6.33;;;11.20;99.90;;;;;;4959433;29;20212;-83
2022/04/27 09:10:21;;;;;;;5.90;5.20;;;11.10;99.90;;;;;;4959927;29;20655;-83
2022/04/27 09:12:53;;;;;;;9.67;6.97;;;11.00;99.90;;;;;;4961142;28;20554;-83
2022/04/27 09:15:21;;;;;;;7.57;6.17;;;10.90;99.90;;;;;;4959444;28;20188;-83
2022/04/27 09:20:54;;;;;;;7.07;5.70;;;11.00;99.90;;;;;;4960885;29;20176;-83
2022/04/27 09:23:21;;;;;;;7.70;6.27;;;11.10;99.90;;;;;;4959159;29;20187;-83
2022/04/27 09:25:52;;;;;;;8.93;7.00;;;11.10;99.90;;;;;;4959477;28;20184;-83
2022/04/27 09:28:21;;;;;;;8.33;6.87;;;11.30;99.90;;;;;;4960401;28;20277;-83
2022/04/27 09:30:48;;;;;;;8.10;6.87;;;11.30;99.90;;;;;;4960344;28;20212;-83
2022/04/27 09:33:13;;;;;;;7.47;6.50;;;11.10;99.90;;;;;;4959365;29;20187;-83
2022/04/27 09:35:39;;;;;;;9.00;7.33;;;10.90;99.90;;;;;;4958780;28;20272;-83
2022/04/27 09:38:19;;;;;;;10.23;7.60;;;10.90;99.90;;;;;;4958631;29;20176;-83
2022/04/27 09:40:54;;;;;;;6.80;6.10;;;10.90;99.90;;;;;;4958657;29;20201;-83
2022/04/27 09:43:44;;;;;;;7.13;6.13;;;10.90;99.90;;;;;;4960368;28;20165;-83
2022/04/27 09:46:17;;;;;;;7.63;6.27;;;10.90;99.90;;;;;;4958797;29;20534;-83
2022/04/27 09:48:46;;;;;;;9.67;7.30;;;10.80;99.90;;;;;;4959056;29;20201;-83
2022/04/27 09:51:13;;;;;;;9.80;6.93;;;10.70;99.90;;;;;;4958276;28;20197;-83
2022/04/27 09:53:42;;;;;;;8.60;6.77;;;10.80;99.90;;;;;;4959059;28;20177;-83
2022/04/27 09:56:12;;;;;;;8.60;6.47;;;10.80;99.90;;;;;;4958581;29;20173;-83
2022/04/27 09:58:44;;;;;;;11.73;8.23;;;10.90;99.90;;;;;;4959155;29;20184;-83
2022/04/27 10:01:14;;;;;;;9.90;7.77;;;10.90;99.90;;;;;;4958448;29;20212;-83
2022/04/27 10:03:41;;;;;;;10.03;7.77;;;10.90;99.90;;;;;;4959088;29;20169;-83
2022/04/27 10:06:07;;;;;;;8.53;6.73;;;10.90;99.90;;;;;;4958633;29;20180;-83
2022/04/27 10:08:39;;;;;;;7.73;6.23;;;10.80;99.90;;;;;;4958360;29;20204;-83
2022/04/27 10:11:07;;;;;;;9.93;7.40;;;10.90;99.90;;;;;;4960122;28;20307;-83
2022/04/27 10:13:33;;;;;;;8.70;7.10;;;10.90;99.90;;;;;;4960379;28;20251;-84
2022/04/27 10:15:59;;;;;;;10.10;6.63;;;10.90;99.90;;;;;;4958956;29;20173;-83
2022/04/27 10:18:25;;;;;;;8.93;7.00;;;10.80;99.90;;;;;;4958892;28;20271;-83
2022/04/27 10:20:51;;;;;;;12.37;7.07;;;10.90;99.90;;;;;;4958282;28;20745;-83
2022/04/27 10:23:27;;;;;;;8.70;7.03;;;11.00;99.90;;;;;;4958632;29;20555;-83
2022/04/27 10:26:08;;;;;;;8.10;6.70;;;11.10;99.90;;;;;;4958458;28;20182;-83
2022/04/27 10:28:37;;;;;;;8.97;6.57;;;11.30;99.90;;;;;;4958661;28;20238;-83
2022/04/27 10:31:04;;;;;;;8.27;6.90;;;11.20;99.90;;;;;;4942971;28;20239;-82
2022/04/27 10:33:40;;;;;;;11.60;7.20;;;11.30;99.90;;;;;;4960049;28;20235;-83
2022/04/27 10:36:27;;;;;;;7.13;6.20;;;11.60;99.90;;;;;;4958957;28;20267;-84
2022/04/27 10:39:11;;;;;;;9.13;7.33;;;11.80;99.90;;;;;;4961248;29;20267;-83
2022/04/27 10:41:42;;;;;;;8.23;7.10;;;12.10;99.90;;;;;;4959297;29;20208;-82
2022/04/27 10:44:07;;;;;;;8.07;6.37;;;12.40;99.90;;;;;;4969195;28;20180;-82
2022/04/27 10:46:38;;;;;;;8.57;6.73;;;12.90;99.90;;;;;;4968208;29;20187;-82
2022/04/27 10:49:36;;;;;;;8.73;5.97;;;13.20;99.90;;;;;;4959461;28;20223;-82
2022/04/27 10:52:04;;;;;;;7.93;5.97;;;13.50;99.90;;;;;;4974101;28;20204;-82
2022/04/27 10:54:31;;;;;;;7.90;6.17;;;13.60;99.90;;;;;;4959988;28;20179;-82
2022/04/27 10:57:15;;;;;;;7.87;6.70;;;14.00;99.90;;;;;;4959620;28;20165;-82
2022/04/27 10:59:48;;;;;;;7.03;6.33;;;14.60;99.90;;;;;;4959324;29;20169;-83
2022/04/27 11:02:33;;;;;;;6.77;5.83;;;15.20;99.90;;;;;;4958686;28;20216;-83
2022/04/27 11:05:03;;;;;;;6.60;5.47;;;15.70;99.90;;;;;;4959163;28;20180;-83
2022/04/27 11:07:37;;;;;;;5.77;5.13;;;16.30;99.90;;;;;;4960721;28;20181;-83
2022/04/27 11:10:14;;;;;;;6.83;6.13;;;16.90;99.90;;;;;;4958924;29;20168;-83
2022/04/27 11:12:42;;;;;;;6.83;6.13;;;17.30;99.90;;;;;;4958683;28;20201;-83
2022/04/27 11:15:10;;;;;;;6.30;5.70;;;17.50;99.90;;;;;;4960158;28;20175;-83
2022/04/27 11:17:37;;;;;;;6.47;5.77;;;17.90;99.90;;;;;;4958872;28;20186;-83
2022/04/27 11:20:04;;;;;;;7.03;6.07;;;17.90;99.90;;;;;;4961086;28;20580;-82
2022/04/27 11:22:38;;;;;;;6.03;5.50;;;17.60;99.80;;;;;;4961703;28;20189;-83
2022/04/27 11:25:07;;;;;;;6.37;5.77;;;17.10;99.50;;;;;;4961488;28;20172;-81
2022/04/27 11:27:34;;;;;;;8.07;6.03;;;16.50;99.90;;;;;;4960299;28;20256;-83
2022/04/27 11:30:03;;;;;;;6.67;5.97;;;15.80;99.20;;;;;;4957887;29;20177;-83
2022/04/27 11:32:29;;;;;;;6.70;6.10;;;15.40;99.90;;;;;;4957552;29;20202;-83
2022/04/27 11:34:55;;;;;;;6.57;5.40;;;15.10;99.90;;;;;;4958958;28;20174;-83
2022/04/27 11:37:21;;;;;;;6.57;5.87;;;14.90;99.90;;;;;;4957041;28;20664;-83
2022/04/27 11:39:48;;;;;;;9.27;5.93;;;14.80;99.90;;;;;;4960487;28;20202;-82
2022/04/27 11:42:16;;;;;;;5.90;5.30;;;14.40;99.90;;;;;;4960518;28;20246;-83
2022/04/27 11:44:48;;;;;;;7.47;5.50;;;14.10;99.90;;;;;;4960907;28;20564;-83
2022/04/27 11:47:29;;;;;;;7.47;6.60;;;13.70;99.90;;;;;;4960276;28;20178;-84
2022/04/27 11:49:59;;;;;;;6.17;5.57;;;13.60;99.90;;;;;;4958826;29;20181;-84
2022/04/27 11:52:26;;;;;;;6.40;5.73;;;13.90;99.90;;;;;;4961587;28;20191;-84
2022/04/27 11:54:52;;;;;;;9.73;5.23;;;14.80;99.90;;;;;;4963032;28;20223;-83
2022/04/27 11:57:24;;;;;;;6.63;5.80;;;15.40;99.70;;;;;;4965686;28;20174;-83
2022/04/27 11:59:51;;;;;;;6.13;5.50;;;15.70;99.90;;;;;;4960677;29;20608;-83
2022/04/27 12:02:22;;;;;;;5.87;5.27;;;15.70;99.50;;;;;;4962515;28;20209;-83
2022/04/27 12:04:49;;;;;;;5.47;4.97;;;15.20;99.90;;;;;;4960807;29;20209;-83
2022/04/27 12:07:16;;;;;;;6.20;5.60;;;14.80;99.90;;;;;;4962143;28;20643;-83
2022/04/27 12:09:56;;;;;;;5.90;5.40;;;15.00;99.90;;;;;;4960590;29;20209;-83
2022/04/27 12:12:22;;;;;;;6.20;5.60;;;15.60;99.90;;;;;;4962058;28;20192;-83
2022/04/27 12:14:47;;;;;;;6.10;4.93;;;16.80;99.90;;;;;;4960953;28;20213;-83
2022/04/27 12:17:51;;;;;;;5.27;4.77;;;17.90;97.70;;;;;;4962879;28;20181;-83
2022/04/27 12:20:39;;;;;;;8.23;5.53;;;18.40;97.30;;;;;;4962166;28;20196;-83
2022/04/27 12:23:11;;;;;;;5.17;4.67;;;19.30;96.30;;;;;;4962123;29;20223;-83
2022/04/27 12:25:41;;;;;;;5.37;4.87;;;19.60;90.90;;;;;;4962699;29;20215;-83
2022/04/27 12:28:10;;;;;;;7.27;4.57;;;20.30;90.90;;;;;;4962635;28;20628;-84
2022/04/27 12:30:41;;;;;;;4.87;4.37;;;19.40;88.00;;;;;;4962442;28;20267;-85
2022/04/27 12:33:07;;;;;;;4.87;4.37;;;18.90;92.60;;;;;;4964530;28;20172;-84
2022/04/27 12:38:18;;;;;;;5.10;4.60;;;19.00;82.20;;;;;;4968175;29;20239;-84
2022/04/27 12:40:44;;;;;;;4.27;3.87;;;16.40;89.60;;;;;;4968264;29;20204;-85
2022/04/27 12:43:15;;;;;;;5.07;4.60;;;16.30;88.90;;;;;;4976568;29;20161;-83
2022/04/27 12:46:03;;;;;;;4.57;4.17;;;15.40;89.20;;;;;;4982201;28;20156;-83
2022/04/27 12:48:31;;;;;;;4.20;3.90;;;15.70;92.00;;;;;;4980918;29;20204;-82
2022/04/27 12:51:00;;;;;;;5.20;4.70;;;16.30;90.80;;;;;;4971320;28;20196;-84
2022/04/27 12:53:26;;;;;;;4.97;4.47;;;15.70;92.00;;;;;;4962933;28;20178;-83
2022/04/27 12:56:12;;;;;;;5.90;5.37;;;15.10;91.80;;;;;;4960921;29;20188;-84
2022/04/27 12:58:39;;;;;;;5.03;4.53;;;14.60;93.70;;;;;;4960142;29;20261;-83
2022/04/27 13:01:05;;;;;;;5.43;4.43;;;15.10;93.90;;;;;;4958584;28;20217;-83
2022/04/27 13:03:31;;;;;;;4.80;4.40;;;16.80;91.90;;;;;;4960465;28;20177;-84
2022/04/27 13:05:57;;;;;;;4.80;4.37;;;18.50;90.30;;;;;;4960020;28;20549;-83
2022/04/27 13:08:23;;;;;;;6.37;4.40;;;19.70;87.90;;;;;;4959934;28;20222;-84
2022/04/27 13:13:34;;;;;;;6.67;4.20;;;20.10;82.40;;;;;;4963695;29;20196;-84
2022/04/27 13:16:00;;;;;;;5.20;4.00;;;19.10;82.20;;;;;;4963183;29;20653;-84
2022/04/27 13:18:26;;;;;;;6.10;4.20;;;17.80;85.10;;;;;;4962360;28;20192;-84
2022/04/27 13:20:52;;;;;;;4.70;4.30;;;16.70;88.00;;;;;;4962951;28;20201;-84
2022/04/27 13:23:21;;;;;;;6.87;4.93;;;15.40;88.90;;;;;;4961368;29;20194;-84
2022/04/27 13:25:47;;;;;;;5.03;4.53;;;14.50;91.00;;;;;;4961507;28;20186;-84
2022/04/27 13:28:13;;;;;;;4.33;3.93;;;13.80;91.50;;;;;;4961645;29;20296;-84
2022/04/27 13:30:43;;;;;;;4.93;4.43;;;13.50;92.80;;;;;;4962355;29;20184;-84
2022/04/27 13:33:09;;;;;;;6.20;4.47;;;13.50;93.70;;;;;;4962469;28;20548;-84